Portada
METAR-TAF:

METAR-TAF

Aeroports :

Aeroport Internacional Quatro de Fevereiro

Luanda, Angola

latitud: 08-51S, longitud: 013-14E, altitud: 74 m

Observació

L'informe es va fer fa 39 minuts, a les 18:00 UTC
Vent 11 kt del Sud-Oest
Temperatura 28°C
Humitat 70%
Pressió 1008 hPa
Visibilitat 10 km o més
Escasses núvols a una alçada de 2200 ft

METAR: FNLU 071800Z 22011KT 9999 FEW022 28/22 Q1008 NOSIG

Hora: 19:39 (18:39 UTC)

Pronòstic

L'informe es va fer fa 1 hora i 39 minuts, a les 17:00 UTC
Pronòstic vàlid del 07 a les 18 UTC al 08 a les 24 UTC
Vent 10 kt del Oest/Sud-Oest
Visibilitat 10 km o més
Núvols disperses a una alçada de 2200 ft
Evolucionant progressivament
l' 07 a les 19 UTC al 07 a les 21 UTC
Vent 6 kt del Sud
Evolucionant progressivament
l' 08 a les 10 UTC al 08 a les 12 UTC
Vent 10 kt del Oest

TAF: FNLU 071700Z 0718/0824 25010KT 9999 SCT022 BECMG 0719/0721 19006KT BECMG 0810/0812 27010KT

Observacions i pronòstics meteorològics de més de 4000 aeroports (METAR i TAF).

Les estacions disponibles són els punts grocs i vermells al mapa.

Posi el ratolí al punt desitjat per veure el nom de l'estació.

Feu clic per veure les observacions i els pronòstics meteorològics.

Per canviar el mapa: feu clic els botons verds amb una creu de color negre per apropar; al botó verd amb un guió per allunyar la imatge; o en les fletxes verdes per a mapes adjacents.


METAR-TAF: